createdAt,value
2023-02-22T00:00:00.202Z,78.3
2023-02-22T00:05:00.156Z,79
2023-02-22T00:10:00.173Z,79.5
2023-02-22T00:15:00.138Z,79.8
2023-02-22T00:20:00.146Z,79.8
2023-02-22T00:25:00.154Z,79.6
2023-02-22T00:30:00.182Z,79.7
2023-02-22T00:35:00.153Z,79.6
2023-02-22T00:40:00.139Z,79.5
2023-02-22T00:45:00.150Z,79.4
2023-02-22T00:50:00.128Z,79.4
2023-02-22T00:55:00.137Z,79.3
2023-02-22T01:00:00.199Z,79.2
2023-02-22T01:05:00.156Z,79.2
2023-02-22T01:10:00.163Z,79.3
2023-02-22T01:15:00.114Z,79.4
2023-02-22T01:20:00.146Z,79.3
2023-02-22T01:25:00.132Z,78.5
2023-02-22T01:30:00.132Z,79.4
2023-02-22T01:35:00.165Z,79.5
2023-02-22T01:40:00.107Z,79.5
2023-02-22T01:45:00.168Z,79.5
2023-02-22T01:50:00.107Z,79.7
2023-02-22T01:55:00.118Z,79.7
2023-02-22T02:00:00.267Z,79.7
2023-02-22T02:05:01.267Z,79.7
2023-02-22T02:10:00.139Z,79.7
2023-02-22T02:15:00.112Z,79.8
2023-02-22T02:20:00.147Z,79.9
2023-02-22T02:25:00.126Z,80.2
2023-02-22T02:30:00.129Z,80.4
2023-02-22T02:35:00.109Z,80.5
2023-02-22T02:40:00.205Z,80.7
2023-02-22T02:45:00.166Z,80.9
2023-02-22T02:50:00.141Z,81.6
2023-02-22T02:55:00.176Z,81.1
2023-02-22T03:00:00.172Z,82.4
2023-02-22T03:05:00.185Z,82.4
2023-02-22T03:10:00.136Z,83.2
2023-02-22T03:15:00.174Z,83.8
2023-02-22T03:20:00.126Z,83.8
2023-02-22T03:25:00.129Z,83.9
2023-02-22T03:30:00.167Z,84.2
2023-02-22T03:35:00.117Z,84.6
2023-02-22T03:40:00.130Z,84.9
2023-02-22T03:45:00.160Z,85.2
2023-02-22T03:50:00.122Z,85.6
2023-02-22T03:55:00.174Z,85.6
2023-02-22T04:00:00.190Z,85.7
2023-02-22T04:05:00.249Z,85.7
2023-02-22T04:10:00.134Z,85.7
2023-02-22T04:15:00.122Z,85.7
2023-02-22T04:20:00.141Z,85.9
2023-02-22T04:25:00.139Z,86
2023-02-22T04:30:00.167Z,86.2
2023-02-22T04:35:00.114Z,86.6
2023-02-22T04:40:00.117Z,87.1
2023-02-22T04:45:00.134Z,87.1
2023-02-22T04:50:00.125Z,86.9
2023-02-22T04:55:00.119Z,86.7
2023-02-22T05:00:00.169Z,86.8
2023-02-22T05:05:00.230Z,86.9
2023-02-22T05:10:00.121Z,87.1
2023-02-22T05:15:00.183Z,87.1
2023-02-22T05:20:00.131Z,87.1
2023-02-22T05:25:00.162Z,87.3
2023-02-22T05:30:00.184Z,87.3
2023-02-22T05:35:00.127Z,87.5
2023-02-22T05:40:00.134Z,87.7
2023-02-22T05:45:00.163Z,88
2023-02-22T05:50:00.147Z,88.4
2023-02-22T05:55:00.131Z,88.9
2023-02-22T06:00:00.165Z,89.4
2023-02-22T06:05:00.169Z,89.9
2023-02-22T06:10:00.102Z,90
2023-02-22T06:15:00.107Z,90.1
2023-02-22T06:20:00.183Z,90.2
2023-02-22T06:25:00.132Z,90.2
2023-02-22T06:30:00.137Z,90.2
2023-02-22T06:35:00.106Z,90.2
2023-02-22T06:40:04.788Z,90.3
2023-02-22T06:45:00.182Z,90.3
2023-02-22T06:50:00.128Z,90.3
2023-02-22T06:55:00.209Z,90.3
2023-02-22T07:00:00.180Z,90.2
2023-02-22T07:05:00.143Z,90.2
2023-02-22T07:10:00.135Z,90.2
2023-02-22T07:15:00.128Z,90.2
2023-02-22T07:20:00.158Z,90.1
2023-02-22T07:25:00.154Z,90
2023-02-22T07:30:00.139Z,90
2023-02-22T07:35:00.128Z,90
2023-02-22T07:40:00.127Z,90
2023-02-22T07:45:00.155Z,90
2023-02-22T07:50:00.156Z,90
2023-02-22T07:55:00.122Z,90
2023-02-22T08:00:00.138Z,89.6
2023-02-22T08:05:00.181Z,89.6
2023-02-22T08:10:00.181Z,89.4
2023-02-22T08:15:00.156Z,89.2
2023-02-22T08:20:00.132Z,89
2023-02-22T08:25:00.229Z,88.8
2023-02-22T08:30:00.166Z,88.8
2023-02-22T08:35:00.139Z,88.7
2023-02-22T08:40:00.160Z,88.2
2023-02-22T08:45:00.164Z,87.2
2023-02-22T08:50:00.174Z,87.4
2023-02-22T08:55:00.141Z,87.2
2023-02-22T09:00:00.176Z,86.9
2023-02-22T09:05:00.147Z,86.6
2023-02-22T09:10:00.145Z,85.5
2023-02-22T09:15:00.131Z,84.6
2023-02-22T09:20:00.163Z,83.9
2023-02-22T09:25:02.535Z,83.6
2023-02-22T09:30:00.132Z,82.7
2023-02-22T09:35:00.113Z,82.7
2023-02-22T09:40:00.205Z,82.2
2023-02-22T09:45:00.150Z,80.7
2023-02-22T09:50:00.122Z,81.4
2023-02-22T09:55:00.105Z,80.8
2023-02-22T10:00:00.201Z,79.6
2023-02-22T10:05:00.255Z,80.5
2023-02-22T10:10:00.124Z,80.2
2023-02-22T10:15:00.107Z,80
2023-02-22T10:20:00.142Z,79.5
2023-02-22T10:25:00.166Z,79
2023-02-22T10:30:00.157Z,79.1
2023-02-22T10:35:00.117Z,78.6
2023-02-22T10:40:00.120Z,78.8
2023-02-22T10:45:00.257Z,78.4
2023-02-22T10:50:00.112Z,78.4
2023-02-22T10:55:13.979Z,77.9
2023-02-22T11:00:00.132Z,76.5
2023-02-22T11:05:00.214Z,76.9
2023-02-22T11:10:00.153Z,76.6
2023-02-22T11:15:00.102Z,76.2
2023-02-22T11:20:00.228Z,75.3
2023-02-22T11:25:00.174Z,75.2
2023-02-22T11:30:00.159Z,74.4
2023-02-22T11:35:08.588Z,74.2
2023-02-22T11:40:00.121Z,73.5
2023-02-22T11:45:00.203Z,73.2
2023-02-22T11:50:00.097Z,73.8
2023-02-22T11:55:00.118Z,71.9
2023-02-22T12:00:00.130Z,72.5
2023-02-22T12:05:00.308Z,72.4
2023-02-22T12:10:00.143Z,72.1
2023-02-22T12:15:00.109Z,72.1
2023-02-22T12:20:00.161Z,71.9
2023-02-22T12:25:08.937Z,71.6
2023-02-22T12:30:00.158Z,71
2023-02-22T12:35:00.153Z,71.3
2023-02-22T12:40:00.124Z,71.5
2023-02-22T12:45:00.155Z,71.7
2023-02-22T12:50:00.126Z,70.7
2023-02-22T12:55:00.117Z,70.9
2023-02-22T13:00:00.144Z,70.6
2023-02-22T13:05:00.176Z,70.9
2023-02-22T13:10:00.116Z,71
2023-02-22T13:15:00.142Z,71
2023-02-22T13:20:00.150Z,71.2
2023-02-22T13:25:00.148Z,70.6
2023-02-22T13:30:00.128Z,72
2023-02-22T13:35:00.156Z,71.9
2023-02-22T13:40:00.171Z,72.2
2023-02-22T13:45:00.125Z,72.3
2023-02-22T13:50:00.104Z,72.4
2023-02-22T13:55:00.106Z,72.5
2023-02-22T14:00:00.129Z,72.4
2023-02-22T14:05:00.253Z,72.4
2023-02-22T14:10:00.174Z,72.7
2023-02-22T14:15:00.130Z,72.9
2023-02-22T14:20:00.147Z,72.9
2023-02-22T14:25:00.130Z,72
2023-02-22T14:30:00.123Z,72.7
2023-02-22T14:35:00.109Z,72
2023-02-22T14:40:00.135Z,73
2023-02-22T14:45:00.134Z,73.3
2023-02-22T14:50:00.159Z,73.7
2023-02-22T14:55:00.118Z,73.9
2023-02-22T15:00:00.146Z,74.1
2023-02-22T15:05:00.419Z,74.1
2023-02-22T15:10:00.141Z,74.2
2023-02-22T15:15:00.102Z,74.2
2023-02-22T15:20:00.123Z,74.3
2023-02-22T15:25:00.176Z,74.3
2023-02-22T15:30:00.169Z,73.9
2023-02-22T15:35:00.122Z,74.5
2023-02-22T15:40:00.155Z,74.6
2023-02-22T15:45:00.121Z,74.6
2023-02-22T15:50:00.222Z,74.6
2023-02-22T15:55:00.119Z,74.7
2023-02-22T16:00:00.215Z,74.8
2023-02-22T16:05:00.638Z,75
2023-02-22T16:10:00.244Z,75.2
2023-02-22T16:15:00.141Z,75.4
2023-02-22T16:20:00.120Z,76
2023-02-22T16:25:00.159Z,75.8
2023-02-22T16:30:00.124Z,75.9
2023-02-22T16:35:00.170Z,76.3
2023-02-22T16:40:00.156Z,77
2023-02-22T16:45:00.147Z,77.5
2023-02-22T16:50:00.156Z,77.7
2023-02-22T16:55:00.120Z,78.1
2023-02-22T17:00:00.184Z,78.7
2023-02-22T17:05:00.145Z,78.7
2023-02-22T17:10:00.207Z,79
2023-02-22T17:15:00.134Z,78.6
2023-02-22T17:20:00.159Z,79.4
2023-02-22T17:25:00.138Z,79.8
2023-02-22T17:30:00.130Z,80.3
2023-02-22T17:35:00.098Z,80.6
2023-02-22T17:40:00.126Z,81
2023-02-22T17:45:00.146Z,81.8
2023-02-22T17:50:00.120Z,82.1
2023-02-22T17:55:00.139Z,81.7
2023-02-22T18:00:00.132Z,83.3
2023-02-22T18:05:00.135Z,84.4
2023-02-22T18:10:00.119Z,84.9
2023-02-22T18:15:00.116Z,85.4
2023-02-22T18:20:00.097Z,86.2
2023-02-22T18:25:01.891Z,86.9
2023-02-22T18:30:00.131Z,87.2
2023-02-22T18:35:00.119Z,87.5
2023-02-22T18:40:00.113Z,87.7
2023-02-22T18:45:00.143Z,88
2023-02-22T18:50:00.114Z,88.3
2023-02-22T18:55:00.153Z,88.3
2023-02-22T19:00:00.162Z,88.6
2023-02-22T19:05:00.140Z,88.9
2023-02-22T19:10:00.129Z,89
2023-02-22T19:15:00.139Z,89.2
2023-02-22T19:20:00.143Z,89.4
2023-02-22T19:25:00.161Z,89.7
2023-02-22T19:30:00.161Z,89.8
2023-02-22T19:35:00.115Z,90
2023-02-22T19:40:00.151Z,90.1
2023-02-22T19:45:00.127Z,90
2023-02-22T19:50:00.303Z,90.1
2023-02-22T19:55:00.125Z,90.1
2023-02-22T20:00:00.149Z,90.1
2023-02-22T20:05:00.131Z,90.2
2023-02-22T20:10:00.133Z,90.5
2023-02-22T20:15:00.108Z,90.8
2023-02-22T20:20:00.149Z,90.1
2023-02-22T20:25:00.148Z,90.3
2023-02-22T20:30:00.134Z,90.4
2023-02-22T20:35:00.114Z,90.5
2023-02-22T20:40:00.112Z,90.6
2023-02-22T20:45:00.320Z,90.7
2023-02-22T20:50:00.112Z,90.7
2023-02-22T20:55:00.101Z,90.8
2023-02-22T21:00:00.111Z,90.9
2023-02-22T21:05:00.233Z,91.1
2023-02-22T21:10:00.148Z,91.1
2023-02-22T21:15:00.120Z,91.2
2023-02-22T21:20:00.146Z,91.2
2023-02-22T21:25:00.132Z,91.2
2023-02-22T21:30:00.134Z,91.2
2023-02-22T21:35:00.115Z,91.1
2023-02-22T21:40:00.113Z,91.2
2023-02-22T21:45:00.275Z,91.3
2023-02-22T21:50:00.118Z,91.3
2023-02-22T21:55:00.132Z,91.4
2023-02-22T22:00:00.129Z,91.4
2023-02-22T22:05:00.134Z,91.4
2023-02-22T22:10:00.107Z,91.4
2023-02-22T22:15:00.137Z,91.5
2023-02-22T22:20:00.115Z,91.5
2023-02-22T22:25:00.123Z,91.7
2023-02-22T22:30:00.165Z,91.7
2023-02-22T22:35:00.120Z,91.8
2023-02-22T22:40:00.130Z,92
2023-02-22T22:45:00.162Z,92
2023-02-22T22:50:00.096Z,92.1
2023-02-22T22:55:00.097Z,92.1
2023-02-22T23:00:00.230Z,92.1
2023-02-22T23:05:00.123Z,92.1
2023-02-22T23:10:00.117Z,91.9
2023-02-22T23:15:00.107Z,91.8
2023-02-22T23:20:00.106Z,91.6
2023-02-22T23:25:00.142Z,91.5
2023-02-22T23:30:00.135Z,91.5
2023-02-22T23:35:00.101Z,91.4
2023-02-22T23:40:00.107Z,91.4
2023-02-22T23:45:00.142Z,91.3
2023-02-22T23:50:00.102Z,91.3
2023-02-22T23:55:00.100Z,91.3
